Time;durP1;ratioP1;P1;durP2;ratioP2;P2;SDS_P1;SDS_P2;PMS_P1;PMS_P2;Temp;Humidity;BMP_temperature;BMP_pressure;BME280_temperature;BME280_humidity;BME280_pressure;Samples;Min_cycle;Max_cycle;Signal;HPM_P1;HPM_P2
2022/09/27 00:01:14;;;;;;;2.53;1.93;;;10.60;99.90;;;;;;5134469;27;20179;-76
2022/09/27 00:03:40;;;;;;;4.13;1.43;;;10.50;99.90;;;;;;5134408;27;20171;-77
2022/09/27 00:06:21;;;;;;;4.93;1.80;;;10.50;99.90;;;;;;5134486;27;20638;-76
2022/09/27 00:08:50;;;;;;;6.33;1.70;;;10.60;99.90;;;;;;5115666;28;20175;-75
2022/09/27 00:11:38;;;;;;;4.50;1.50;;;10.60;99.90;;;;;;5134490;27;20175;-75
2022/09/27 00:14:05;;;;;;;2.57;1.43;;;10.50;99.90;;;;;;5116160;27;20162;-75
2022/09/27 00:16:33;;;;;;;4.17;1.60;;;10.50;99.90;;;;;;5134254;28;20665;-75
2022/09/27 00:19:04;;;;;;;3.33;1.40;;;10.60;99.90;;;;;;5134274;28;20163;-75
2022/09/27 00:21:30;;;;;;;5.70;1.30;;;10.60;99.90;;;;;;5115899;28;20243;-76
2022/09/27 00:23:58;;;;;;;2.30;1.33;;;10.60;99.90;;;;;;5133746;28;20220;-77
2022/09/27 00:26:24;;;;;;;4.07;1.10;;;10.60;99.90;;;;;;5112132;28;20210;-75
2022/09/27 00:28:50;;;;;;;5.70;1.37;;;10.50;99.90;;;;;;5113577;28;20167;-75
2022/09/27 00:31:22;;;;;;;6.23;1.40;;;10.60;99.90;;;;;;5113630;28;20638;-75
2022/09/27 00:33:50;;;;;;;5.80;1.50;;;10.60;99.90;;;;;;5113581;28;20171;-75
2022/09/27 00:36:16;;;;;;;6.47;1.40;;;10.50;99.90;;;;;;5113656;28;20209;-76
2022/09/27 00:38:42;;;;;;;3.00;1.20;;;10.60;99.90;;;;;;5115578;28;20167;-76
2022/09/27 00:41:15;;;;;;;4.93;1.37;;;10.60;99.90;;;;;;5117675;28;20173;-76
2022/09/27 00:43:49;;;;;;;2.80;1.00;;;10.60;99.90;;;;;;5117717;28;20170;-77
2022/09/27 00:46:21;;;;;;;2.97;1.17;;;10.70;99.90;;;;;;5117822;28;20217;-76
2022/09/27 00:48:51;;;;;;;3.40;1.03;;;10.60;99.90;;;;;;5116371;28;20175;-76
2022/09/27 00:51:16;;;;;;;3.60;1.30;;;10.60;99.90;;;;;;5117110;28;20210;-75
2022/09/27 00:53:50;;;;;;;2.97;1.37;;;10.70;99.90;;;;;;5116254;28;20175;-77
2022/09/27 00:56:20;;;;;;;5.50;1.17;;;10.60;99.90;;;;;;5117381;27;20208;-76
2022/09/27 00:58:54;;;;;;;4.27;1.37;;;10.60;99.90;;;;;;5116107;28;20578;-77
2022/09/27 01:01:19;;;;;;;2.43;1.07;;;10.70;99.90;;;;;;5117391;28;20163;-77
2022/09/27 01:04:00;;;;;;;5.53;1.80;;;10.60;99.90;;;;;;5116132;28;20236;-77
2022/09/27 01:06:26;;;;;;;3.10;1.00;;;10.70;99.90;;;;;;5116851;27;20252;-77
2022/09/27 01:08:51;;;;;;;3.10;1.10;;;10.70;99.90;;;;;;5117034;28;20175;-75
2022/09/27 01:11:26;;;;;;;2.73;1.33;;;10.70;99.90;;;;;;5115823;28;20205;-77
2022/09/27 01:14:15;;;;;;;6.10;1.17;;;10.60;99.90;;;;;;5117132;28;20166;-77
2022/09/27 01:17:00;;;;;;;3.63;1.10;;;10.60;99.90;;;;;;5068912;28;20244;-77
2022/09/27 01:19:56;;;;;;;5.10;1.37;;;10.60;99.90;;;;;;5117174;28;20171;-77
2022/09/27 01:22:40;;;;;;;6.23;1.40;;;10.60;99.90;;;;;;5116603;28;20228;-77
2022/09/27 01:25:29;;;;;;;3.90;1.30;;;10.60;99.90;;;;;;5115685;28;20182;-77
2022/09/27 01:28:06;;;;;;;4.27;1.20;;;10.60;99.90;;;;;;5115290;28;20277;-77
2022/09/27 01:30:41;;;;;;;5.17;1.60;;;10.60;99.90;;;;;;5116774;28;20223;-77
2022/09/27 01:33:11;;;;;;;2.17;1.20;;;10.60;99.90;;;;;;5116814;28;20163;-77
2022/09/27 01:35:39;;;;;;;2.63;1.20;;;10.60;99.90;;;;;;5114959;28;20171;-77
2022/09/27 01:38:29;;;;;;;3.40;1.20;;;10.50;99.90;;;;;;5116583;28;20231;-77
2022/09/27 01:40:57;;;;;;;3.40;1.63;;;10.50;99.90;;;;;;5115266;28;20658;-77
2022/09/27 01:43:33;;;;;;;3.43;1.53;;;10.50;99.90;;;;;;5115259;28;20175;-77
2022/09/27 01:46:07;;;;;;;5.03;1.40;;;10.50;99.90;;;;;;5116415;28;20197;-77
2022/09/27 01:48:41;;;;;;;3.03;1.30;;;10.50;99.90;;;;;;5114705;28;20175;-77
2022/09/27 01:51:12;;;;;;;5.43;1.50;;;10.50;99.90;;;;;;5116077;28;20210;-77
2022/09/27 01:53:45;;;;;;;5.67;1.40;;;10.50;99.90;;;;;;5116252;28;20270;-77
2022/09/27 01:56:17;;;;;;;4.70;1.33;;;10.50;99.90;;;;;;5116301;28;20666;-77
2022/09/27 01:59:09;;;;;;;2.47;1.40;;;10.50;99.90;;;;;;5116263;28;20159;-77
2022/09/27 02:01:38;;;;;;;4.43;1.67;;;10.50;99.90;;;;;;5116167;28;20163;-77
2022/09/27 02:04:07;;;;;;;4.53;1.50;;;10.40;99.90;;;;;;5115703;28;20203;-77
2022/09/27 02:06:38;;;;;;;4.87;1.70;;;10.40;99.90;;;;;;5116091;28;20182;-77
2022/09/27 02:09:36;;;;;;;6.63;1.53;;;10.40;99.90;;;;;;5114893;28;20695;-77
2022/09/27 02:12:05;;;;;;;2.73;1.27;;;10.50;99.90;;;;;;5114721;28;20206;-77
2022/09/27 02:14:40;;;;;;;3.53;1.40;;;10.50;99.90;;;;;;5116138;28;20171;-77
2022/09/27 02:17:10;;;;;;;6.07;2.80;;;10.60;99.90;;;;;;5114684;28;20697;-77
2022/09/27 02:20:03;;;;;;;5.30;1.93;;;10.60;99.90;;;;;;5115426;28;20159;-77
2022/09/27 02:22:40;;;;;;;4.33;2.27;;;10.70;99.90;;;;;;5115743;28;20649;-77
2022/09/27 02:25:35;;;;;;;3.27;1.73;;;10.60;99.90;;;;;;5115789;28;20167;-77
2022/09/27 02:28:14;;;;;;;4.33;1.57;;;10.50;99.90;;;;;;5097731;28;20225;-77
2022/09/27 02:30:40;;;;;;;2.00;1.33;;;10.50;99.90;;;;;;5114251;28;20171;-76
2022/09/27 02:33:06;;;;;;;2.43;1.40;;;10.50;99.90;;;;;;5115076;28;20175;-77
2022/09/27 02:35:33;;;;;;;4.20;1.40;;;10.50;99.90;;;;;;5115507;28;20176;-77
2022/09/27 02:37:59;;;;;;;5.67;1.60;;;10.60;99.90;;;;;;5115300;28;20272;-77
2022/09/27 02:40:31;;;;;;;5.60;1.57;;;10.60;99.90;;;;;;5115408;28;20191;-75
2022/09/27 02:42:58;;;;;;;5.23;1.63;;;10.60;99.90;;;;;;5113990;28;20685;-76
2022/09/27 02:45:29;;;;;;;4.53;1.63;;;10.60;99.90;;;;;;5113743;28;20168;-75
2022/09/27 02:48:16;;;;;;;3.33;1.40;;;10.60;99.90;;;;;;5114892;28;20155;-76
2022/09/27 02:51:00;;;;;;;3.60;1.30;;;10.50;99.90;;;;;;5115109;28;20191;-75
2022/09/27 02:53:32;;;;;;;2.53;1.70;;;10.40;99.90;;;;;;5113735;28;20171;-75
2022/09/27 02:56:02;;;;;;;2.43;1.30;;;10.50;99.90;;;;;;5114959;28;20198;-75
2022/09/27 02:58:39;;;;;;;3.20;1.60;;;10.50;99.90;;;;;;5115201;28;20167;-75
2022/09/27 03:01:19;;;;;;;2.27;1.10;;;10.50;99.90;;;;;;5112875;28;20261;-75
2022/09/27 03:03:54;;;;;;;2.93;1.27;;;10.50;99.90;;;;;;5113460;28;20238;-76
2022/09/27 03:06:22;;;;;;;1.30;1.10;;;10.30;99.90;;;;;;5114623;28;20166;-75
2022/09/27 03:08:48;;;;;;;4.13;1.50;;;10.30;99.90;;;;;;5114791;28;20216;-75
2022/09/27 03:11:14;;;;;;;3.57;1.40;;;10.30;99.90;;;;;;5114743;28;20168;-77
2022/09/27 03:13:40;;;;;;;4.13;1.40;;;10.20;99.90;;;;;;5113188;28;20583;-77
2022/09/27 03:16:06;;;;;;;2.63;1.47;;;10.30;99.90;;;;;;5114638;28;20207;-77
2022/09/27 03:18:32;;;;;;;3.33;1.67;;;10.30;99.90;;;;;;5112765;28;20167;-77
2022/09/27 03:20:58;;;;;;;3.60;1.33;;;10.30;99.90;;;;;;5113923;28;20155;-77
2022/09/27 03:23:24;;;;;;;2.67;1.40;;;10.40;99.90;;;;;;5114105;28;20166;-75
2022/09/27 03:25:50;;;;;;;2.97;1.50;;;10.40;99.90;;;;;;5114443;28;20175;-75
2022/09/27 03:28:16;;;;;;;4.30;1.67;;;10.50;99.90;;;;;;5134256;27;20230;-76
2022/09/27 03:30:44;;;;;;;2.30;1.37;;;10.50;99.90;;;;;;5134648;27;20196;-76
2022/09/27 03:33:09;;;;;;;2.97;1.30;;;10.40;99.90;;;;;;5116542;27;20170;-75
2022/09/27 03:35:36;;;;;;;2.03;1.70;;;10.50;99.90;;;;;;5134701;27;20533;-75
2022/09/27 03:38:02;;;;;;;2.10;1.33;;;10.40;99.90;;;;;;5134815;27;20186;-76
2022/09/27 03:40:28;;;;;;;4.27;1.60;;;10.40;99.90;;;;;;5134568;27;20171;-76
2022/09/27 03:42:54;;;;;;;5.67;1.97;;;10.30;99.90;;;;;;5134493;27;20177;-76
2022/09/27 03:45:20;;;;;;;2.40;1.70;;;10.30;99.90;;;;;;5134402;27;20220;-76
2022/09/27 03:47:46;;;;;;;2.77;1.73;;;10.40;99.90;;;;;;5134755;27;20179;-77
2022/09/27 03:50:13;;;;;;;3.27;1.77;;;10.40;99.90;;;;;;5134051;27;20206;-77
2022/09/27 03:52:41;;;;;;;2.40;1.67;;;10.40;99.90;;;;;;5134517;27;20236;-77
2022/09/27 03:55:07;;;;;;;2.67;1.50;;;10.40;99.90;;;;;;5133854;27;20192;-77
2022/09/27 03:57:32;;;;;;;4.17;1.67;;;10.50;99.90;;;;;;5134508;27;20224;-77
2022/09/27 03:59:58;;;;;;;3.40;1.80;;;10.40;99.90;;;;;;5133752;27;20329;-77
2022/09/27 04:02:28;;;;;;;3.63;1.60;;;10.30;99.90;;;;;;5134392;27;20178;-77
2022/09/27 04:04:53;;;;;;;7.40;1.57;;;10.30;99.90;;;;;;5134126;27;20265;-77
2022/09/27 04:07:19;;;;;;;2.90;1.70;;;10.30;99.90;;;;;;5134089;27;20253;-77
2022/09/27 04:09:45;;;;;;;4.07;1.80;;;10.30;99.90;;;;;;5133978;27;20175;-76
2022/09/27 04:12:12;;;;;;;2.77;1.63;;;10.20;99.90;;;;;;5133897;27;20186;-76
2022/09/27 04:14:37;;;;;;;4.07;1.70;;;10.20;99.90;;;;;;5133640;27;20159;-75
2022/09/27 04:17:03;;;;;;;3.10;1.83;;;10.20;99.90;;;;;;5134021;28;20199;-75
2022/09/27 04:19:28;;;;;;;2.57;1.97;;;10.20;99.90;;;;;;5134026;28;20194;-75
2022/09/27 04:21:54;;;;;;;3.50;1.70;;;10.20;99.90;;;;;;5133768;28;20167;-76
2022/09/27 04:24:20;;;;;;;1.97;1.83;;;10.20;99.90;;;;;;5133813;28;20481;-76
2022/09/27 04:26:48;;;;;;;3.50;2.37;;;10.20;99.90;;;;;;5133733;28;20222;-76
2022/09/27 04:29:14;;;;;;;8.97;2.20;;;10.30;99.90;;;;;;5133819;28;20638;-77
2022/09/27 04:31:40;;;;;;;4.50;2.27;;;10.30;99.90;;;;;;5133494;28;20221;-76
2022/09/27 04:34:06;;;;;;;4.77;2.30;;;10.30;99.90;;;;;;5133552;28;20638;-76
2022/09/27 04:36:32;;;;;;;4.70;2.23;;;10.30;99.90;;;;;;5133864;28;20569;-77
2022/09/27 04:38:59;;;;;;;5.73;2.53;;;10.30;99.90;;;;;;5133586;28;20498;-76
2022/09/27 04:41:27;;;;;;;4.17;2.93;;;10.30;99.90;;;;;;5133338;28;20167;-76
2022/09/27 04:43:56;;;;;;;3.03;2.70;;;10.30;99.90;;;;;;5133667;28;20288;-76
2022/09/27 04:46:23;;;;;;;5.00;3.40;;;10.30;99.90;;;;;;5133413;28;20163;-76
2022/09/27 04:48:49;;;;;;;4.50;3.63;;;10.30;99.90;;;;;;5133974;28;20256;-75
2022/09/27 04:51:16;;;;;;;5.53;3.90;;;10.40;99.90;;;;;;5133224;28;20217;-76
2022/09/27 04:53:43;;;;;;;6.50;4.23;;;10.40;99.90;;;;;;5133129;28;20261;-76
2022/09/27 04:56:09;;;;;;;6.33;4.00;;;10.40;99.90;;;;;;5135021;28;20219;-76
2022/09/27 04:58:35;;;;;;;4.50;4.10;;;10.40;99.90;;;;;;5132945;28;20171;-76
2022/09/27 05:01:02;;;;;;;5.10;4.57;;;10.30;99.90;;;;;;5133024;28;20170;-76
2022/09/27 05:03:29;;;;;;;8.43;4.80;;;10.40;99.90;;;;;;5133377;28;20261;-76
2022/09/27 05:05:55;;;;;;;7.13;4.80;;;10.40;99.90;;;;;;5133309;28;20169;-75
2022/09/27 05:08:20;;;;;;;5.00;3.77;;;10.30;99.90;;;;;;5133253;28;20175;-76
2022/09/27 05:10:47;;;;;;;4.80;4.40;;;10.20;99.90;;;;;;5133156;28;20252;-76
2022/09/27 05:13:13;;;;;;;5.40;3.97;;;10.20;99.90;;;;;;5132284;28;20203;-76
2022/09/27 05:15:39;;;;;;;4.97;4.43;;;10.30;99.90;;;;;;5114434;28;20174;-76
2022/09/27 05:18:07;;;;;;;7.40;3.80;;;10.40;99.90;;;;;;5132891;28;20688;-76
2022/09/27 05:20:33;;;;;;;4.70;3.97;;;10.40;99.90;;;;;;5114213;28;20230;-75
2022/09/27 05:22:59;;;;;;;4.20;3.63;;;10.30;99.90;;;;;;5133115;27;20186;-76
2022/09/27 05:25:25;;;;;;;7.80;3.80;;;10.30;99.90;;;;;;5136227;27;20526;-77
2022/09/27 05:27:51;;;;;;;6.10;3.53;;;10.40;99.90;;;;;;5135453;27;20225;-76
2022/09/27 05:30:16;;;;;;;5.53;3.93;;;10.30;99.90;;;;;;5136600;27;20178;-76
2022/09/27 05:32:44;;;;;;;4.50;3.40;;;10.30;99.90;;;;;;5118137;27;20654;-77
2022/09/27 05:35:10;;;;;;;7.57;3.87;;;10.30;99.90;;;;;;5135662;27;20284;-77
2022/09/27 05:37:35;;;;;;;6.67;3.57;;;10.30;99.90;;;;;;5136123;27;20243;-77
2022/09/27 05:40:02;;;;;;;6.07;3.53;;;10.40;99.90;;;;;;5135687;27;20185;-77
2022/09/27 05:42:27;;;;;;;6.23;3.80;;;10.10;99.90;;;;;;5135410;27;20166;-77
2022/09/27 05:44:53;;;;;;;4.40;3.40;;;10.10;99.90;;;;;;5136086;27;20171;-77
2022/09/27 05:47:18;;;;;;;3.87;3.57;;;10.20;99.90;;;;;;5135746;27;20162;-77
2022/09/27 05:49:44;;;;;;;4.13;3.70;;;10.10;99.90;;;;;;5135827;27;20256;-76
2022/09/27 05:52:09;;;;;;;5.57;3.70;;;10.10;99.90;;;;;;5135964;27;20578;-77
2022/09/27 05:54:35;;;;;;;5.03;3.67;;;10.20;99.90;;;;;;5135447;27;20485;-77
2022/09/27 05:57:01;;;;;;;4.33;3.50;;;10.10;99.90;;;;;;5135512;27;20210;-76
2022/09/27 05:59:27;;;;;;;4.23;2.90;;;10.10;99.90;;;;;;5135260;27;20163;-78
2022/09/27 06:01:53;;;;;;;5.23;3.30;;;10.20;99.90;;;;;;5135166;27;20166;-76
2022/09/27 06:04:20;;;;;;;5.33;3.00;;;10.10;99.90;;;;;;5135378;27;20653;-77
2022/09/27 06:06:47;;;;;;;3.50;3.20;;;10.10;99.90;;;;;;5135931;27;20181;-76
2022/09/27 06:09:15;;;;;;;4.43;3.07;;;10.10;99.90;;;;;;5135889;27;20275;-78
2022/09/27 06:11:42;;;;;;;5.43;2.80;;;10.10;99.90;;;;;;5134709;27;20163;-78
2022/09/27 06:14:08;;;;;;;3.50;3.00;;;10.20;99.90;;;;;;5135938;27;20581;-77
2022/09/27 06:16:34;;;;;;;6.60;3.07;;;10.20;99.90;;;;;;5134654;27;20198;-78
2022/09/27 06:18:59;;;;;;;4.13;3.07;;;10.30;99.90;;;;;;5134946;27;20248;-77
2022/09/27 06:21:26;;;;;;;6.27;3.37;;;10.30;99.90;;;;;;5135495;27;20190;-77
2022/09/27 06:23:54;;;;;;;6.87;2.50;;;10.40;99.90;;;;;;5135052;27;20184;-77
2022/09/27 06:26:20;;;;;;;5.27;2.83;;;10.40;99.90;;;;;;5095873;28;20558;-78
2022/09/27 06:28:46;;;;;;;4.80;2.37;;;10.40;99.90;;;;;;5114778;28;20172;-78
2022/09/27 06:31:13;;;;;;;4.27;2.83;;;10.30;99.90;;;;;;5114094;28;20186;-78
2022/09/27 06:33:39;;;;;;;4.60;2.63;;;10.20;99.90;;;;;;5114807;28;20186;-79
2022/09/27 06:36:06;;;;;;;6.37;2.90;;;10.20;99.90;;;;;;5114332;28;20171;-78
2022/09/27 06:38:32;;;;;;;4.40;3.83;;;10.20;99.90;;;;;;5113890;28;20163;-77
2022/09/27 06:41:01;;;;;;;3.83;2.80;;;10.20;99.90;;;;;;5113921;28;20256;-78
2022/09/27 06:43:27;;;;;;;5.33;2.73;;;10.30;99.90;;;;;;5112579;28;20201;-77
2022/09/27 06:45:53;;;;;;;4.80;2.80;;;10.30;99.90;;;;;;5114400;28;20627;-77
2022/09/27 06:48:19;;;;;;;6.93;3.10;;;10.40;99.90;;;;;;5113129;28;20176;-79
2022/09/27 06:50:47;;;;;;;6.77;3.00;;;10.20;99.90;;;;;;5113885;28;20191;-78
2022/09/27 06:53:14;;;;;;;4.03;3.10;;;10.20;99.90;;;;;;5114083;28;20167;-78
2022/09/27 06:55:40;;;;;;;4.17;3.07;;;10.30;99.90;;;;;;5112597;28;20211;-79
2022/09/27 07:00:57;;;;;;;6.53;5.90;;;10.60;99.90;;;;;;5114013;28;20262;-79
2022/09/27 07:03:25;;;;;;;4.83;4.10;;;10.70;99.90;;;;;;5113979;28;20639;-78
2022/09/27 07:05:55;;;;;;;10.70;9.50;;;10.70;99.90;;;;;;5114087;28;20680;-77
2022/09/27 07:08:21;;;;;;;13.27;8.83;;;10.90;99.90;;;;;;5113419;28;20212;-77
2022/09/27 07:10:47;;;;;;;10.23;4.73;;;11.00;99.90;;;;;;5113166;28;20171;-78
2022/09/27 07:13:13;;;;;;;8.70;4.40;;;11.10;99.90;;;;;;5113885;28;20207;-76
2022/09/27 07:15:40;;;;;;;3.70;3.40;;;11.20;99.90;;;;;;5112909;28;20191;-77
2022/09/27 07:18:07;;;;;;;8.00;3.43;;;11.10;99.90;;;;;;5113026;28;20218;-74
2022/09/27 07:20:36;;;;;;;4.83;3.30;;;11.10;99.90;;;;;;5112044;28;20168;-77
2022/09/27 07:23:01;;;;;;;4.77;3.40;;;11.10;99.90;;;;;;5113789;28;20164;-79
2022/09/27 07:25:27;;;;;;;4.03;3.60;;;11.20;99.90;;;;;;5113704;28;20174;-79
2022/09/27 07:27:53;;;;;;;3.53;2.83;;;11.40;99.90;;;;;;5130255;27;20223;-78
2022/09/27 07:30:20;;;;;;;4.07;3.13;;;11.50;99.90;;;;;;5134127;27;20162;-78
2022/09/27 07:32:45;;;;;;;5.27;2.80;;;11.60;99.90;;;;;;5134144;27;20247;-78
2022/09/27 07:35:14;;;;;;;5.53;3.33;;;11.50;99.90;;;;;;5133890;27;20208;-76
2022/09/27 07:37:40;;;;;;;5.27;3.27;;;11.60;99.90;;;;;;5115122;27;20696;-78
2022/09/27 07:40:08;;;;;;;3.80;3.03;;;11.50;98.80;;;;;;5134060;27;20253;-78
2022/09/27 07:42:37;;;;;;;5.03;3.20;;;11.60;99.90;;;;;;5133657;27;20179;-78
2022/09/27 07:45:05;;;;;;;3.67;2.90;;;11.60;99.90;;;;;;5134258;27;20166;-78
2022/09/27 07:47:31;;;;;;;7.83;2.93;;;11.60;99.90;;;;;;5114866;27;20618;-78
2022/09/27 07:49:57;;;;;;;9.53;5.77;;;11.50;96.20;;;;;;5115042;27;20194;-78
2022/09/27 07:52:23;;;;;;;8.03;4.00;;;11.60;99.60;;;;;;5133589;27;20188;-78
2022/09/27 07:54:49;;;;;;;3.87;3.00;;;11.50;99.90;;;;;;5133427;27;20171;-78
2022/09/27 07:57:14;;;;;;;3.37;2.80;;;11.50;97.20;;;;;;5115360;27;20682;-78
2022/09/27 07:59:40;;;;;;;3.17;2.60;;;11.30;99.50;;;;;;5133590;27;20181;-78
2022/09/27 08:02:13;;;;;;;4.50;2.97;;;11.30;99.90;;;;;;5133238;27;20185;-79
2022/09/27 08:04:38;;;;;;;6.10;2.50;;;11.20;99.90;;;;;;5133620;27;20183;-78
2022/09/27 08:07:04;;;;;;;7.30;4.17;;;11.20;99.90;;;;;;5133106;27;20191;-77
2022/09/27 08:09:30;;;;;;;4.87;2.97;;;11.20;99.90;;;;;;5133720;27;20507;-76
2022/09/27 08:11:57;;;;;;;3.47;2.90;;;11.20;99.90;;;;;;5115571;27;20201;-78
2022/09/27 08:14:23;;;;;;;6.13;2.80;;;11.20;99.90;;;;;;5133571;27;20167;-78
2022/09/27 08:16:50;;;;;;;6.20;2.77;;;11.30;99.90;;;;;;5133548;27;20205;-78
2022/09/27 08:19:16;;;;;;;4.73;3.03;;;11.20;99.90;;;;;;5114879;28;20260;-79
2022/09/27 08:21:42;;;;;;;3.43;2.87;;;11.30;99.90;;;;;;5133593;28;20173;-79
2022/09/27 08:24:08;;;;;;;3.47;3.17;;;11.30;99.90;;;;;;5133778;28;20519;-79
2022/09/27 08:26:33;;;;;;;7.57;3.00;;;11.40;99.90;;;;;;5133300;28;20289;-79
2022/09/27 08:28:59;;;;;;;3.97;2.20;;;11.20;99.90;;;;;;5133634;28;20666;-79
2022/09/27 08:31:24;;;;;;;2.50;1.83;;;11.40;99.90;;;;;;5114656;28;20261;-79
2022/09/27 08:33:51;;;;;;;4.60;2.20;;;11.30;99.90;;;;;;5133768;28;20230;-79
2022/09/27 08:36:17;;;;;;;2.87;2.20;;;11.30;99.90;;;;;;5132661;28;20166;-79
2022/09/27 08:38:42;;;;;;;4.30;2.00;;;11.30;99.90;;;;;;5133598;28;20166;-79
2022/09/27 08:41:15;;;;;;;3.97;2.00;;;11.20;99.90;;;;;;5114717;28;20226;-78
2022/09/27 08:43:43;;;;;;;5.33;2.10;;;11.20;99.90;;;;;;5133770;28;20178;-78
2022/09/27 08:46:47;;;;;;;3.23;2.13;;;11.20;99.90;;;;;;5133376;28;20178;-78
2022/09/27 08:49:50;;;;;;;2.93;1.90;;;11.00;99.90;;;;;;5087522;28;20197;-79
2022/09/27 08:52:41;;;;;;;7.10;4.97;;;11.00;99.90;;;;;;5049281;28;20641;-79
2022/09/27 08:55:35;;;;;;;2.67;2.10;;;10.90;99.90;;;;;;5050356;28;20679;-78
2022/09/27 08:58:03;;;;;;;2.57;2.20;;;10.90;99.90;;;;;;5050084;28;20209;-79
2022/09/27 09:00:29;;;;;;;5.70;2.60;;;10.80;99.90;;;;;;5053040;28;20161;-77
2022/09/27 09:02:56;;;;;;;5.60;2.90;;;10.90;99.90;;;;;;5053568;28;20181;-78
2022/09/27 09:05:34;;;;;;;5.30;1.97;;;10.90;99.90;;;;;;5037140;28;20279;-77
2022/09/27 09:08:43;;;;;;;3.83;3.47;;;11.00;99.90;;;;;;5053569;28;20284;-78
2022/09/27 09:14:17;;;;;;;3.23;3.03;;;10.90;99.90;;;;;;5053962;28;20180;-78
2022/09/27 09:16:51;;;;;;;3.60;2.67;;;10.90;99.90;;;;;;5036239;28;20308;-79
2022/09/27 09:19:25;;;;;;;3.93;3.57;;;10.90;99.90;;;;;;5053051;28;20268;-79
2022/09/27 09:22:12;;;;;;;5.07;4.57;;;10.90;99.90;;;;;;5053566;28;20184;-79
2022/09/27 09:24:45;;;;;;;29.90;25.53;;;10.80;99.90;;;;;;5053411;28;20172;-79
2022/09/27 09:27:42;;;;;;;26.27;22.23;;;10.80;99.90;;;;;;5062481;28;20259;-79
2022/09/27 09:30:24;;;;;;;3.97;2.53;;;10.90;99.90;;;;;;5095619;28;20187;-79
2022/09/27 09:33:12;;;;;;;4.03;2.73;;;11.00;99.90;;;;;;5095823;28;20183;-80
2022/09/27 09:36:00;;;;;;;6.40;5.60;;;11.10;99.90;;;;;;5094440;28;20543;-80
2022/09/27 09:38:49;;;;;;;4.37;3.60;;;11.40;99.90;;;;;;5095446;28;20188;-80
2022/09/27 09:41:22;;;;;;;4.93;2.23;;;11.90;99.90;;;;;;5093835;28;20280;-79
2022/09/27 09:43:57;;;;;;;8.13;5.50;;;12.30;99.90;;;;;;5095893;28;20172;-79
2022/09/27 09:46:32;;;;;;;4.27;2.60;;;12.60;99.90;;;;;;5095114;28;20173;-79
2022/09/27 09:49:22;;;;;;;5.40;2.73;;;13.00;99.90;;;;;;5095613;28;20180;-78
2022/09/27 09:51:54;;;;;;;4.43;2.40;;;13.20;95.90;;;;;;5089673;28;20276;-78
2022/09/27 09:54:35;;;;;;;3.47;2.60;;;13.20;77.00;;;;;;5095226;28;20179;-78
2022/09/27 09:57:13;;;;;;;5.53;3.27;;;13.30;58.00;;;;;;5095298;28;20606;-78
2022/09/27 09:59:54;;;;;;;5.50;2.60;;;13.30;66.20;;;;;;5095336;28;20163;-78
2022/09/27 10:02:31;;;;;;;7.77;5.80;;;13.00;55.50;;;;;;5094398;28;20175;-78
2022/09/27 10:04:57;;;;;;;6.50;4.37;;;13.10;74.60;;;;;;5093434;28;20172;-78
2022/09/27 10:07:25;;;;;;;7.50;4.90;;;13.30;85.70;;;;;;5094209;28;20186;-80
2022/09/27 10:09:52;;;;;;;8.50;3.40;;;13.80;59.70;;;;;;5094558;28;20160;-79
2022/09/27 10:12:18;;;;;;;4.30;2.50;;;14.70;30.00;;;;;;5092946;28;20275;-82
2022/09/27 10:14:48;;;;;;;4.87;2.10;;;15.70;7.20;;;;;;5095409;28;20243;-79
2022/09/27 10:17:19;;;;;;;4.20;1.97;;;16.20;1.00;;;;;;5093910;28;20250;-81
2022/09/27 10:19:47;;;;;;;4.17;2.43;;;16.40;1.00;;;;;;5094672;28;20234;-82
2022/09/27 10:22:25;;;;;;;3.50;2.13;;;16.30;1.00;;;;;;5093663;28;20268;-82
2022/09/27 10:24:57;;;;;;;5.60;2.10;;;16.00;1.00;;;;;;5093190;28;20179;-82
2022/09/27 10:27:26;;;;;;;6.97;2.20;;;15.90;1.00;;;;;;5119250;27;20289;-81
2022/09/27 10:29:59;;;;;;;6.03;1.87;;;15.70;1.00;;;;;;5135697;27;20163;-82
2022/09/27 10:32:31;;;;;;;9.27;2.37;;;15.70;1.00;;;;;;5135331;27;20241;-83
2022/09/27 10:35:20;;;;;;;4.50;1.77;;;15.70;1.00;;;;;;5135290;27;20246;-82
2022/09/27 10:37:46;;;;;;;5.13;2.03;;;15.50;1.00;;;;;;5116741;27;20297;-82
2022/09/27 10:40:30;;;;;;;5.70;2.00;;;15.40;1.00;;;;;;5135649;27;20586;-82
2022/09/27 10:42:55;;;;;;;5.17;2.10;;;15.60;1.00;;;;;;5117060;27;20288;-83
2022/09/27 10:45:31;;;;;;;4.10;2.00;;;15.80;1.00;;;;;;5135677;27;20241;-83
2022/09/27 10:47:59;;;;;;;4.17;2.20;;;15.30;1.00;;;;;;5116254;27;20231;-83
2022/09/27 10:50:31;;;;;;;11.03;3.70;;;15.40;1.00;;;;;;5134875;27;20205;-82
2022/09/27 10:53:02;;;;;;;6.50;3.07;;;15.50;1.00;;;;;;5134919;27;20171;-81
2022/09/27 10:55:33;;;;;;;4.73;2.50;;;15.50;1.00;;;;;;5134879;27;20286;-81
2022/09/27 10:57:58;;;;;;;8.37;2.70;;;15.70;1.00;;;;;;5134906;27;20198;-81
2022/09/27 11:00:31;;;;;;;7.17;2.37;;;16.40;1.00;;;;;;5134654;27;20167;-81
2022/09/27 11:03:01;;;;;;;7.60;2.13;;;16.40;1.00;;;;;;5134946;27;20174;-81
2022/09/27 11:05:34;;;;;;;5.28;2.45;;;17.10;1.00;;;;;;5134593;27;20159;-81
2022/09/27 11:08:18;;;;;;;3.88;2.20;;;17.10;1.00;;;;;;5134924;27;20166;-82
2022/09/27 11:10:58;;;;;;;5.13;3.05;;;17.00;1.00;;;;;;5134489;27;20162;-82
2022/09/27 11:13:24;;;;;;;2.15;1.65;;;16.80;1.00;;;;;;5134738;27;20186;-82
2022/09/27 11:16:03;;;;;;;4.37;2.00;;;16.10;1.00;;;;;;5134198;27;20194;-81
2022/09/27 11:18:51;;;;;;;3.83;1.47;;;15.10;1.00;;;;;;5135135;27;20231;-82
2022/09/27 11:21:39;;;;;;;2.10;1.07;;;14.60;1.00;;;;;;5115025;28;20217;-82
2022/09/27 11:24:33;;;;;;;2.70;1.30;;;14.60;1.00;;;;;;5065821;27;20235;-81
2022/09/27 11:27:24;;;;;;;0.80;0.80;;;14.40;1.00;;;;;;5112366;28;20855;-82
2022/09/27 11:29:55;;;;;;;5.60;2.90;;;14.20;1.00;;;;;;5113645;28;20213;-82
2022/09/27 11:32:58;;;;;;;3.77;1.30;;;14.10;1.00;;;;;;5113168;28;20170;-79
2022/09/27 11:35:46;;;;;;;2.50;1.10;;;14.10;1.00;;;;;;5061095;28;20243;-80
2022/09/27 11:38:36;;;;;;;3.50;1.00;;;14.30;1.00;;;;;;5111985;28;20343;-81
2022/09/27 11:41:29;;;;;;;2.63;1.37;;;14.20;1.00;;;;;;5113399;28;20232;-80
2022/09/27 11:44:16;;;;;;;1.10;1.00;;;14.20;1.00;;;;;;5112899;28;20167;-81
2022/09/27 11:46:49;;;;;;;2.50;1.20;;;14.10;1.00;;;;;;5113764;28;20256;-80
2022/09/27 11:49:21;;;;;;;3.27;1.67;;;14.00;1.00;;;;;;5113388;28;20181;-80
2022/09/27 11:52:21;;;;;;;3.90;1.33;;;14.50;1.00;;;;;;5112872;28;20561;-81
2022/09/27 11:55:12;;;;;;;1.73;1.10;;;14.60;1.00;;;;;;5044261;28;20185;-79
2022/09/27 11:58:03;;;;;;;4.70;1.67;;;14.40;1.00;;;;;;5111755;28;20206;-79
2022/09/27 12:00:49;;;;;;;3.80;1.37;;;14.20;1.00;;;;;;5113105;28;20178;-79
2022/09/27 12:03:33;;;;;;;3.57;1.30;;;14.10;1.00;;;;;;5113127;28;20163;-79
2022/09/27 12:06:06;;;;;;;5.40;1.43;;;14.20;1.00;;;;;;5111604;28;20167;-78
2022/09/27 12:08:35;;;;;;;1.53;1.33;;;14.00;1.00;;;;;;5113100;28;20171;-78
2022/09/27 12:11:24;;;;;;;1.50;1.30;;;14.10;1.00;;;;;;5112840;28;20257;-78
2022/09/27 12:14:17;;;;;;;4.10;1.53;;;14.40;1.00;;;;;;5072891;28;20524;-79
2022/09/27 12:16:44;;;;;;;4.03;1.90;;;14.70;1.00;;;;;;5113544;28;20191;-78
2022/09/27 12:19:25;;;;;;;6.43;1.77;;;15.10;1.00;;;;;;5112770;28;20170;-78
2022/09/27 12:21:52;;;;;;;2.57;1.80;;;15.70;1.00;;;;;;5112842;28;20196;-77
2022/09/27 12:24:22;;;;;;;6.27;1.90;;;16.10;1.00;;;;;;5113249;28;20163;-77
2022/09/27 12:27:00;;;;;;;4.90;1.67;;;16.10;99.90;;;;;;5111261;28;20747;-77
2022/09/27 12:29:38;;;;;;;6.63;2.00;;;16.10;1.00;;;;;;5111339;28;20733;-77
2022/09/27 12:32:14;;;;;;;4.97;2.40;;;15.90;1.00;;;;;;5112970;28;20250;-78
2022/09/27 12:35:10;;;;;;;4.40;2.00;;;15.50;1.00;;;;;;5115901;28;20175;-77
2022/09/27 12:37:51;;;;;;;4.83;1.70;;;15.40;1.00;;;;;;5117130;28;20289;-77
2022/09/27 12:40:29;;;;;;;6.40;2.27;;;15.40;1.00;;;;;;5117029;28;20331;-77
2022/09/27 12:43:02;;;;;;;8.67;2.27;;;15.40;1.00;;;;;;5116766;28;20202;-78
2022/09/27 12:45:46;;;;;;;3.53;1.90;;;15.40;1.00;;;;;;5117059;28;20179;-78
2022/09/27 12:48:30;;;;;;;4.30;1.83;;;15.50;1.00;;;;;;5116724;28;20183;-78
2022/09/27 12:51:11;;;;;;;8.53;1.77;;;15.10;1.00;;;;;;5116228;28;20217;-78
2022/09/27 12:54:09;;;;;;;4.40;1.83;;;15.00;1.00;;;;;;5116817;28;20167;-79
2022/09/27 12:56:56;;;;;;;5.03;1.90;;;14.90;1.00;;;;;;5116959;28;20190;-80
2022/09/27 12:59:31;;;;;;;6.30;2.20;;;14.60;1.00;;;;;;5115183;28;20200;-81
2022/09/27 13:02:19;;;;;;;3.00;1.77;;;14.30;1.00;;;;;;5115299;28;20646;-80
2022/09/27 13:05:24;;;;;;;2.53;1.40;;;14.10;1.00;;;;;;5115172;28;20258;-80
2022/09/27 13:08:20;;;;;;;2.57;1.10;;;14.30;1.00;;;;;;5074603;28;20175;-80
2022/09/27 13:11:04;;;;;;;2.47;1.30;;;14.20;1.00;;;;;;5115738;28;20171;-81
2022/09/27 13:13:31;;;;;;;2.40;1.20;;;14.00;1.00;;;;;;5114974;28;20175;-80
2022/09/27 13:16:00;;;;;;;3.07;1.10;;;14.20;1.00;;;;;;5116540;28;20186;-80
2022/09/27 13:18:29;;;;;;;1.77;1.03;;;14.10;1.00;;;;;;5114730;28;20207;-81
2022/09/27 13:20:55;;;;;;;1.60;1.10;;;14.00;1.00;;;;;;5116347;28;20168;-80